createdAt,value
2023-03-12T00:02:39.953Z,97237.53
2023-03-12T00:07:41.212Z,97238.09
2023-03-12T00:12:42.469Z,97250.13
2023-03-12T00:17:43.705Z,97251.25
2023-03-12T00:22:44.965Z,97252.25
2023-03-12T00:27:46.200Z,97251.34
2023-03-12T00:32:47.571Z,97249.53
2023-03-12T00:37:48.845Z,97258.16
2023-03-12T00:42:50.097Z,97258.47
2023-03-12T00:47:51.350Z,97271.88
2023-03-12T00:52:52.694Z,97268.88
2023-03-12T00:57:53.947Z,97272.94
2023-03-12T01:02:55.188Z,97270.38
2023-03-12T01:07:56.525Z,97272.47
2023-03-12T01:12:58.026Z,97259.91
2023-03-12T01:17:59.457Z,97267.75
2023-03-12T01:23:00.841Z,97261.94
2023-03-12T01:28:02.179Z,97260.66
2023-03-12T01:33:03.410Z,97263.97
2023-03-12T01:38:04.672Z,97267.47
2023-03-12T01:43:05.925Z,97264.28
2023-03-12T01:48:07.249Z,97259.03
2023-03-12T01:53:08.472Z,97260.94
2023-03-12T01:58:09.797Z,97265.75
2023-03-12T02:03:11.214Z,97263.31
2023-03-12T02:08:12.557Z,97259.97
2023-03-12T02:13:13.877Z,97260.31
2023-03-12T02:18:15.163Z,97263.31
2023-03-12T02:23:16.511Z,97260.75
2023-03-12T02:28:17.809Z,97267.03
2023-03-12T02:33:19.080Z,97280.50
2023-03-12T02:38:20.463Z,97272.16
2023-03-12T02:43:21.722Z,97277.19
2023-03-12T02:48:22.973Z,97278.03
2023-03-12T02:53:24.256Z,97280.63
2023-03-12T02:58:25.568Z,97280.16
2023-03-12T03:03:26.925Z,97281.88
2023-03-12T03:08:28.209Z,97293.94
2023-03-12T03:13:29.469Z,97292.81
2023-03-12T03:18:30.676Z,97301.56
2023-03-12T03:23:31.880Z,97303.44
2023-03-12T03:28:33.098Z,97299.41
2023-03-12T03:33:34.373Z,97310.53
2023-03-12T03:38:35.874Z,97323.97
2023-03-12T03:43:37.121Z,97327.09
2023-03-12T03:48:38.361Z,97336.50
2023-03-12T03:53:39.811Z,97344.06
2023-03-12T03:58:41.044Z,97351.75
2023-03-12T04:03:42.332Z,97354.97
2023-03-12T04:08:43.599Z,97361.78
2023-03-12T04:13:44.914Z,97355.84
2023-03-12T04:18:46.154Z,97358.25
2023-03-12T04:23:47.403Z,97355.72
2023-03-12T04:28:48.720Z,97352.25
2023-03-12T04:33:50.001Z,97347.25
2023-03-12T04:38:51.250Z,97349.66
2023-03-12T04:43:52.467Z,97344.56
2023-03-12T04:48:53.771Z,97340.13
2023-03-12T04:53:55.002Z,97342.75
2023-03-12T04:58:56.320Z,97344.44
2023-03-12T05:03:57.696Z,97337.59
2023-03-12T05:08:59.061Z,97336.75
2023-03-12T05:14:00.432Z,97334.97
2023-03-12T05:19:02.394Z,97339.25
2023-03-12T05:24:03.729Z,97341.78
2023-03-12T05:29:05.033Z,97336.59
2023-03-12T05:34:06.328Z,97342.63
2023-03-12T05:39:07.609Z,97339.16
2023-03-12T05:44:08.894Z,97348.34
2023-03-12T05:49:10.165Z,97343.25
2023-03-12T05:54:11.438Z,97343.25
2023-03-12T05:59:12.691Z,97352.81
2023-03-12T06:04:13.973Z,97337.59
2023-03-12T06:09:15.269Z,97351.13
2023-03-12T06:14:16.538Z,97357.00
2023-03-12T06:19:17.880Z,97363.06
2023-03-12T06:24:19.111Z,97358.69
2023-03-12T06:29:20.376Z,97360.28
2023-03-12T06:34:21.597Z,97360.31
2023-03-12T06:39:23.007Z,97366.03
2023-03-12T06:44:24.374Z,97363.34
2023-03-12T06:49:26.700Z,97365.03
2023-03-12T06:54:28.067Z,97372.69
2023-03-12T06:59:29.313Z,97386.22
2023-03-12T07:04:30.529Z,97382.84
2023-03-12T07:09:35.203Z,97380.34
2023-03-12T07:14:36.456Z,97388.50
2023-03-12T07:19:37.686Z,97406.19
2023-03-12T07:24:39.001Z,97415.91
2023-03-12T07:29:40.269Z,97411.38
2023-03-12T07:34:41.661Z,97403.94
2023-03-12T07:39:46.544Z,97398.66
2023-03-12T07:44:50.652Z,97395.81
2023-03-12T07:49:52.012Z,97385.16
2023-03-12T07:54:54.334Z,97387.47
2023-03-12T07:59:55.720Z,97384.44
2023-03-12T08:04:57.084Z,97374.94
2023-03-12T08:09:58.450Z,97380.50
2023-03-12T08:14:59.728Z,97372.41
2023-03-12T08:20:00.971Z,97368.31
2023-03-12T08:25:02.246Z,97360.78
2023-03-12T08:30:03.910Z,97354.69
2023-03-12T08:35:05.747Z,97346.91
2023-03-12T08:40:15.519Z,97337.44
2023-03-12T08:45:17.076Z,97332.50
2023-03-12T08:50:18.424Z,97332.72
2023-03-12T08:55:19.721Z,97322.28
2023-03-12T09:00:20.979Z,97307.94
2023-03-12T09:05:22.258Z,97297.22
2023-03-12T09:10:23.514Z,97297.38
2023-03-12T09:15:24.810Z,97303.94
2023-03-12T09:20:26.076Z,97304.38
2023-03-12T09:25:27.302Z,97309.06
2023-03-12T09:30:30.255Z,97295.00
2023-03-12T09:35:31.724Z,97286.97
2023-03-12T09:40:33.502Z,97293.50
2023-03-12T09:45:34.756Z,97283.47
2023-03-12T09:50:40.014Z,97294.34
2023-03-12T09:55:41.305Z,97293.25
2023-03-12T10:00:42.552Z,97293.16
2023-03-12T10:05:44.249Z,97297.94
2023-03-12T10:10:45.582Z,97303.31
2023-03-12T10:15:47.054Z,97304.09
2023-03-12T10:20:48.462Z,97304.72
2023-03-12T10:25:49.684Z,97298.56
2023-03-12T10:30:51.021Z,97318.38
2023-03-12T10:35:52.359Z,97326.69
2023-03-12T10:40:53.582Z,97324.28
2023-03-12T10:45:54.859Z,97329.38
2023-03-12T10:50:56.097Z,97334.00
2023-03-12T10:55:57.328Z,97337.59
2023-03-12T11:00:58.677Z,97330.38
2023-03-12T11:05:59.987Z,97342.81
2023-03-12T11:11:01.349Z,97344.50
2023-03-12T11:16:02.920Z,97330.38
2023-03-12T11:21:04.229Z,97345.03
2023-03-12T11:26:05.548Z,97338.78
2023-03-12T11:31:11.345Z,97346.63
2023-03-12T11:36:13.965Z,97355.75
2023-03-12T11:41:15.193Z,97359.25
2023-03-12T11:46:16.447Z,97359.13
2023-03-12T11:51:17.685Z,97365.94
2023-03-12T11:56:21.458Z,97362.38
2023-03-12T12:01:22.688Z,97362.16
2023-03-12T12:06:24.516Z,97368.09
2023-03-12T12:11:25.844Z,97351.28
2023-03-12T12:16:28.901Z,97343.00
2023-03-12T12:21:30.253Z,97335.78
2023-03-12T12:26:31.651Z,97333.94
2023-03-12T12:31:32.944Z,97332.91
2023-03-12T12:36:34.245Z,97341.47
2023-03-12T12:41:35.506Z,97338.97
2023-03-12T12:46:36.855Z,97324.19
2023-03-12T12:51:38.186Z,97323.78
2023-03-12T12:56:39.509Z,97322.59
2023-03-12T13:01:40.887Z,97306.34
2023-03-12T13:06:42.320Z,97311.94
2023-03-12T13:11:43.652Z,97321.84
2023-03-12T13:16:44.964Z,97327.22
2023-03-12T13:21:46.185Z,97327.72
2023-03-12T13:26:47.518Z,97345.63
2023-03-12T13:31:48.846Z,97337.03
2023-03-12T13:36:50.112Z,97350.22
2023-03-12T13:41:52.083Z,97356.19
2023-03-12T13:46:53.300Z,97352.84
2023-03-12T13:51:55.443Z,97370.88
2023-03-12T13:56:56.669Z,97373.38
2023-03-12T14:01:57.996Z,97383.00
2023-03-12T14:06:59.267Z,97377.03
2023-03-12T14:12:00.738Z,97379.88
2023-03-12T14:17:03.877Z,97375.28
2023-03-12T14:22:05.085Z,97383.00
2023-03-12T14:27:06.333Z,97385.81
2023-03-12T14:32:07.546Z,97394.28
2023-03-12T14:37:08.952Z,97393.53
2023-03-12T14:42:10.253Z,97395.13
2023-03-12T14:47:11.570Z,97370.38
2023-03-12T14:52:12.884Z,97378.81
2023-03-12T14:57:15.583Z,97381.41
2023-03-12T15:02:16.884Z,97377.75
2023-03-12T15:07:18.201Z,97384.69
2023-03-12T15:12:19.505Z,97371.75
2023-03-12T15:17:20.835Z,97373.16
2023-03-12T15:22:23.272Z,97377.88
2023-03-12T15:27:24.670Z,97394.09
2023-03-12T15:32:28.669Z,97377.06
2023-03-12T15:37:33.712Z,97374.91
2023-03-12T15:42:34.982Z,97386.47
2023-03-12T15:47:36.364Z,97379.03
2023-03-12T15:52:41.449Z,97371.06
2023-03-12T15:57:43.317Z,97378.34
2023-03-12T16:02:44.672Z,97357.59
2023-03-12T16:07:46.013Z,97358.66
2023-03-12T16:12:47.599Z,97358.75
2023-03-12T16:17:49.331Z,97357.13
2023-03-12T16:22:50.906Z,97359.22
2023-03-12T16:27:52.142Z,97356.72
2023-03-12T16:32:54.015Z,97360.91
2023-03-12T16:37:55.781Z,97363.94
2023-03-12T16:43:00.588Z,97369.91
2023-03-12T16:48:02.308Z,97391.81
2023-03-12T16:53:04.450Z,97404.31
2023-03-12T16:58:07.083Z,97399.66
2023-03-12T17:03:10.932Z,97409.41
2023-03-12T17:08:12.209Z,97410.19
2023-03-12T17:13:13.414Z,97405.53
2023-03-12T17:18:14.740Z,97403.34
2023-03-12T17:23:16.030Z,97410.00
2023-03-12T17:28:17.441Z,97408.47
2023-03-12T17:33:18.839Z,97424.31
2023-03-12T17:38:20.095Z,97418.94
2023-03-12T17:43:23.130Z,97423.25
2023-03-12T17:48:28.812Z,97437.34
2023-03-12T17:53:30.220Z,97434.88
2023-03-12T17:58:31.626Z,97422.88
2023-03-12T18:03:33.024Z,97427.50
2023-03-12T18:08:34.412Z,97425.97
2023-03-12T18:13:39.859Z,97445.91
2023-03-12T18:18:44.578Z,97453.38
2023-03-12T18:23:47.229Z,97465.41
2023-03-12T18:28:48.593Z,97461.28
2023-03-12T18:33:49.832Z,97453.28
2023-03-12T18:38:51.134Z,97466.47
2023-03-12T18:43:59.908Z,97469.91
2023-03-12T18:49:02.007Z,97484.50
2023-03-12T18:54:03.484Z,97481.38
2023-03-12T18:59:04.757Z,97475.69
2023-03-12T19:04:08.881Z,97483.38
2023-03-12T19:09:10.343Z,97473.97
2023-03-12T19:14:12.306Z,97479.88
2023-03-12T19:19:14.723Z,97489.09
2023-03-12T19:24:15.972Z,97490.31
2023-03-12T19:29:17.239Z,97484.75
2023-03-12T19:34:18.496Z,97488.91
2023-03-12T19:39:21.481Z,97475.13
2023-03-12T19:44:23.052Z,97486.41
2023-03-12T19:49:24.444Z,97489.59
2023-03-12T19:54:25.841Z,97482.78
2023-03-12T19:59:27.141Z,97500.38
2023-03-12T20:04:28.583Z,97494.69
2023-03-12T20:09:29.899Z,97485.53
2023-03-12T20:14:31.161Z,97490.31
2023-03-12T20:19:32.937Z,97494.44
2023-03-12T20:24:34.362Z,97502.22
2023-03-12T20:29:35.939Z,97514.78
2023-03-12T20:34:37.451Z,97504.78
2023-03-12T20:39:38.949Z,97496.75
2023-03-12T20:44:40.291Z,97490.66
2023-03-12T20:49:41.679Z,97489.91
2023-03-12T20:54:42.949Z,97491.66
2023-03-12T20:59:44.271Z,97488.69
2023-03-12T21:04:45.585Z,97485.19
2023-03-12T21:09:46.921Z,97494.09
2023-03-12T21:14:48.315Z,97504.91
2023-03-12T21:19:49.728Z,97509.78
2023-03-12T21:24:51.117Z,97529.72
2023-03-12T21:29:52.470Z,97526.88
2023-03-12T21:34:53.767Z,97516.53
2023-03-12T21:40:00.961Z,97521.44
2023-03-12T21:45:02.255Z,97508.63
2023-03-12T21:50:03.508Z,97501.81
2023-03-12T21:55:04.781Z,97491.25
2023-03-12T22:00:06.154Z,97482.13
2023-03-12T22:05:07.383Z,97476.50
2023-03-12T22:10:12.103Z,97472.78
2023-03-12T22:15:13.593Z,97467.38
2023-03-12T22:20:14.908Z,97470.78
2023-03-12T22:25:16.205Z,97460.22
2023-03-12T22:30:17.564Z,97469.31
2023-03-12T22:35:25.805Z,97453.31
2023-03-12T22:40:28.127Z,97451.13
2023-03-12T22:45:29.381Z,97448.69
2023-03-12T22:50:30.652Z,97444.94
2023-03-12T22:55:32.007Z,97442.44
2023-03-12T23:00:33.250Z,97439.84
2023-03-12T23:05:34.547Z,97429.22
2023-03-12T23:10:35.892Z,97433.03
2023-03-12T23:15:41.334Z,97414.13
2023-03-12T23:20:43.395Z,97407.69
2023-03-12T23:25:44.828Z,97407.41
2023-03-12T23:30:46.114Z,97403.69
2023-03-12T23:35:47.424Z,97398.09
2023-03-12T23:40:48.804Z,97387.50
2023-03-12T23:45:50.325Z,97373.66
2023-03-12T23:50:51.647Z,97371.69
2023-03-12T23:55:52.865Z,97364.97
